Time;durP1;ratioP1;P1;durP2;ratioP2;P2;SDS_P1;SDS_P2;PMS_P1;PMS_P2;Temp;Humidity;BMP_temperature;BMP_pressure;BME280_temperature;BME280_humidity;BME280_pressure;Samples;Min_cycle;Max_cycle;Signal;HPM_P1;HPM_P2
2022/10/15 00:00:37;;;;;;;6.53;5.25;;;;;;;6.24;74.43;97039.47;6296872;28;20094;-69
2022/10/15 00:03:42;;;;;;;5.53;4.78;;;;;;;6.13;74.78;97047.78;6296462;28;20040;-69
2022/10/15 00:06:47;;;;;;;5.13;4.63;;;;;;;6.13;75.28;97037.34;6296547;28;20074;-69
2022/10/15 00:09:48;;;;;;;;;;;;;;;6.16;74.97;97046.81;6296868;28;20048;-69
2022/10/15 00:12:50;;;;;;;5.07;4.57;;;;;;;6.14;75.06;97043.41;6296513;28;19916;-68
2022/10/15 00:15:51;;;;;;;6.88;5.30;;;;;;;6.16;75.13;97034.59;6296503;28;20080;-70
2022/10/15 00:18:56;;;;;;;6.13;4.47;;;;;;;6.16;74.78;97039.81;6296279;28;20405;-69
2022/10/15 00:21:58;;;;;;;5.72;4.60;;;;;;;6.21;75.27;97045.69;6296333;28;20041;-69
2022/10/15 00:25:03;;;;;;;5.85;5.03;;;;;;;6.23;75.11;97038.63;6296104;28;20044;-69
2022/10/15 00:28:05;;;;;;;7.97;5.63;;;;;;;6.26;74.92;97038.50;6296148;28;20048;-68
2022/10/15 00:31:11;;;;;;;;;;;;;;;6.33;74.87;97048.66;6296460;28;20041;-68
2022/10/15 00:34:17;;;;;;;7.70;5.78;;;;;;;6.50;73.91;97044.38;6295811;28;19916;-68
2022/10/15 00:37:21;;;;;;;8.95;6.72;;;;;;;6.44;73.79;97041.19;6296027;28;20122;-69
2022/10/15 00:40:24;;;;;;;7.38;5.35;;;;;;;6.33;73.79;97033.84;6296112;28;20040;-69
2022/10/15 00:43:44;;;;;;;6.78;5.00;;;;;;;6.29;74.11;97048.81;6294825;28;20059;-69
2022/10/15 00:46:53;;;;;;;12.88;7.70;;;;;;;6.20;74.39;97051.84;6295763;28;20505;-69
2022/10/15 00:50:09;;;;;;;10.52;6.90;;;;;;;6.12;74.59;97046.09;6296095;28;20040;-70
2022/10/15 00:53:11;;;;;;;14.90;9.05;;;;;;;6.03;75.13;97043.91;6295865;28;20047;-69
2022/10/15 00:56:19;;;;;;;11.85;7.18;;;;;;;6.12;74.92;97040.88;6295749;28;20494;-69
2022/10/15 00:59:25;;;;;;;8.20;6.90;;;;;;;6.19;74.95;97037.06;6294823;28;20049;-69
2022/10/15 01:02:27;;;;;;;9.27;7.00;;;;;;;6.26;74.86;97038.50;6295813;28;20506;-69
2022/10/15 01:05:30;;;;;;;;;;;;;;;6.44;73.92;97044.66;6294805;28;20049;-69
2022/10/15 01:08:34;;;;;;;6.72;5.53;;;;;;;6.42;73.86;97048.25;6295659;28;20319;-69
2022/10/15 01:11:45;;;;;;;5.82;4.32;;;;;;;6.60;73.31;97047.41;6295609;28;20127;-69
2022/10/15 01:14:47;;;;;;;5.00;4.50;;;;;;;6.60;72.98;97051.81;6295595;28;20050;-69
2022/10/15 01:18:32;;;;;;;6.05;5.10;;;;;;;6.52;73.54;97049.53;6295268;28;20048;-69
2022/10/15 01:21:44;;;;;;;6.20;4.78;;;;;;;6.38;73.94;97046.69;6271879;28;20059;-69
2022/10/15 01:25:02;;;;;;;6.15;4.78;;;;;;;6.43;73.66;97045.56;6295214;28;20044;-69
2022/10/15 01:28:22;;;;;;;6.55;5.13;;;;;;;6.52;73.57;97055.59;6295320;28;20048;-69
2022/10/15 01:32:05;;;;;;;6.63;5.07;;;;;;;6.50;73.79;97051.38;6295331;28;20041;-69
2022/10/15 01:35:24;;;;;;;7.15;5.05;;;;;;;6.49;73.42;97047.91;6289676;28;20460;-69
2022/10/15 01:39:04;;;;;;;6.68;5.40;;;;;;;6.45;73.48;97048.09;6294857;28;20528;-69
2022/10/15 01:42:22;;;;;;;5.63;5.03;;;;;;;6.27;73.99;97045.41;6295401;28;20052;-69
2022/10/15 01:45:32;;;;;;;6.45;5.55;;;;;;;6.41;73.72;97051.78;6295123;28;20044;-69
2022/10/15 01:48:37;;;;;;;7.22;5.72;;;;;;;6.27;74.12;97045.41;6294849;28;20110;-69
2022/10/15 01:51:41;;;;;;;6.32;5.60;;;;;;;6.29;74.61;97048.81;6294984;28;20048;-69
2022/10/15 01:54:46;;;;;;;6.05;4.75;;;;;;;6.17;75.09;97053.72;6294276;28;20048;-69
2022/10/15 01:57:49;;;;;;;6.90;5.05;;;;;;;6.30;74.80;97062.72;6294921;28;20425;-70
2022/10/15 02:00:56;;;;;;;5.45;4.90;;;;;;;6.24;75.05;97063.84;6295068;28;20506;-69
2022/10/15 02:04:00;;;;;;;6.50;5.40;;;;;;;6.30;74.19;97063.56;6295331;28;20055;-69
2022/10/15 02:07:09;;;;;;;5.70;5.00;;;;;;;6.21;74.84;97058.75;6294744;28;20051;-69
2022/10/15 02:10:48;;;;;;;5.82;5.10;;;;;;;6.34;74.85;97060.81;6296839;28;20131;-68
2022/10/15 02:14:10;;;;;;;6.15;5.45;;;;;;;6.39;74.05;97058.84;6299418;28;20513;-69
2022/10/15 02:17:27;;;;;;;6.38;5.65;;;;;;;6.36;74.56;97058.97;6298275;28;20044;-69
2022/10/15 02:20:35;;;;;;;7.35;5.20;;;;;;;6.32;74.20;97065.28;6299387;28;20029;-69
2022/10/15 02:24:06;;;;;;;6.20;5.07;;;;;;;6.45;73.94;97066.41;6297815;28;20506;-69
2022/10/15 02:27:15;;;;;;;6.03;5.43;;;;;;;6.33;73.99;97070.41;6296199;28;20056;-69
2022/10/15 02:30:17;;;;;;;8.45;5.95;;;;;;;6.38;73.85;97070.22;6298975;28;20052;-69
2022/10/15 02:33:22;;;;;;;7.82;5.40;;;;;;;6.46;73.59;97070.72;6299080;28;20052;-69
2022/10/15 02:36:29;;;;;;;5.88;5.30;;;;;;;6.44;73.39;97072.56;6298889;28;20417;-69
2022/10/15 02:39:32;;;;;;;5.35;4.40;;;;;;;6.47;73.73;97075.03;6297398;28;20057;-69
2022/10/15 02:42:34;;;;;;;6.50;5.10;;;;;;;6.43;73.42;97076.09;6298298;28;20051;-69
2022/10/15 02:45:38;;;;;;;4.93;4.53;;;;;;;6.42;74.14;97082.22;6298564;28;20523;-69
2022/10/15 02:48:45;;;;;;;6.18;5.57;;;;;;;6.51;73.69;97073.97;6298737;28;20048;-69
2022/10/15 02:51:49;;;;;;;6.05;5.45;;;;;;;6.53;73.50;97078.22;6298587;28;20048;-69
2022/10/15 02:54:52;;;;;;;8.02;5.55;;;;;;;6.60;72.98;97084.03;6298572;28;20059;-68
2022/10/15 02:57:54;;;;;;;5.53;4.80;;;;;;;6.63;72.94;97086.50;6298361;28;20045;-68
2022/10/15 03:00:56;;;;;;;7.25;5.72;;;;;;;6.69;72.60;97088.81;6297708;28;20048;-69
2022/10/15 03:03:57;;;;;;;5.70;4.38;;;;;;;6.69;72.64;97088.81;6298348;28;20548;-69
2022/10/15 03:07:04;;;;;;;5.93;4.70;;;;;;;6.63;72.84;97094.34;6298163;28;20506;-69
2022/10/15 03:10:06;;;;;;;;;;;;;;;6.49;72.92;97094.13;6296850;28;20049;-69
2022/10/15 03:13:07;;;;;;;4.65;4.15;;;;;;;6.43;73.74;97094.41;6297818;28;19916;-70
2022/10/15 03:16:10;;;;;;;6.00;4.15;;;;;;;6.56;73.45;97097.28;6298253;28;20044;-69
2022/10/15 03:19:12;;;;;;;6.22;5.57;;;;;;;6.57;73.53;97089.41;6297997;28;20644;-69
2022/10/15 03:22:16;;;;;;;5.50;4.85;;;;;;;6.55;73.49;97096.44;6296834;28;20052;-69
2022/10/15 03:25:20;;;;;;;4.55;4.10;;;;;;;6.48;73.94;97092.41;6297088;28;20064;-69
2022/10/15 03:28:22;;;;;;;5.50;4.85;;;;;;;6.55;73.64;97091.22;6297141;28;20576;-68
2022/10/15 03:31:23;;;;;;;5.57;3.70;;;;;;;6.64;73.56;97096.03;6297520;28;20040;-70
2022/10/15 03:34:25;;;;;;;6.30;4.95;;;;;;;6.54;73.68;97102.59;6297185;28;20520;-69
2022/10/15 03:37:26;;;;;;;5.03;4.53;;;;;;;6.47;73.90;97098.56;6297286;28;20044;-69
2022/10/15 03:40:28;;;;;;;5.32;4.85;;;;;;;6.47;74.36;97095.94;6296968;28;20072;-70
2022/10/15 03:43:29;;;;;;;5.43;4.65;;;;;;;6.53;74.26;97101.72;6297243;28;20056;-70
2022/10/15 03:46:31;;;;;;;7.90;6.03;;;;;;;6.65;73.84;97097.75;6296703;28;20205;-69
2022/10/15 03:49:35;;;;;;;6.30;4.78;;;;;;;6.63;74.11;97104.81;6296206;28;20044;-69
2022/10/15 03:52:42;;;;;;;7.03;5.85;;;;;;;6.68;74.03;97102.84;6296977;28;20044;-69
2022/10/15 03:55:43;;;;;;;8.60;6.10;;;;;;;6.77;73.92;97104.19;6296934;28;20048;-70
2022/10/15 03:58:45;;;;;;;6.07;5.10;;;;;;;6.79;73.89;97104.94;6296584;28;20045;-68
2022/10/15 04:01:47;;;;;;;6.75;4.65;;;;;;;6.82;73.81;97103.94;6296740;28;20502;-69
2022/10/15 04:04:52;;;;;;;4.97;4.47;;;;;;;6.91;73.91;97114.84;6295470;28;20053;-69
2022/10/15 04:07:53;;;;;;;7.75;5.30;;;;;;;7.03;73.34;97105.56;6295741;28;20506;-69
2022/10/15 04:11:00;;;;;;;7.72;5.60;;;;;;;7.15;72.63;97091.06;6296624;28;20050;-69
2022/10/15 04:14:05;;;;;;;5.30;4.50;;;;;;;7.32;72.02;97103.34;6296531;28;20042;-70
2022/10/15 04:17:06;;;;;;;5.05;4.30;;;;;;;7.34;71.53;97104.97;6295894;28;20075;-70
2022/10/15 04:20:08;;;;;;;3.63;3.22;;;;;;;7.54;70.55;97104.00;6295564;28;20101;-70
2022/10/15 04:23:13;;;;;;;3.33;2.70;;;;;;;7.54;70.47;97108.38;6295978;28;20052;-69
2022/10/15 04:26:19;;;;;;;2.40;2.20;;;;;;;7.84;68.35;97111.25;6296076;28;20048;-69
2022/10/15 04:29:23;;;;;;;2.33;1.77;;;;;;;8.02;68.29;97112.94;6296072;28;20050;-68
2022/10/15 04:32:25;;;;;;;2.13;1.45;;;;;;;8.23;67.31;97110.16;6295730;28;20048;-70
2022/10/15 04:35:30;;;;;;;1.40;1.20;;;;;;;8.39;66.41;97116.31;6295859;28;20146;-69
2022/10/15 04:38:33;;;;;;;1.23;0.80;;;;;;;8.49;66.07;97120.19;6295610;28;20480;-70
2022/10/15 04:41:37;;;;;;;0.45;0.45;;;;;;;8.77;65.17;97118.69;6295499;28;20044;-69
2022/10/15 04:44:41;;;;;;;0.80;0.60;;;;;;;9.16;63.24;97117.44;6295483;28;20540;-68
2022/10/15 04:47:43;;;;;;;0.30;0.30;;;;;;;9.27;61.84;97122.97;6295026;28;20524;-70
2022/10/15 04:50:47;;;;;;;0.50;0.38;;;;;;;9.20;61.55;97116.38;6295378;28;20048;-69
2022/10/15 04:53:48;;;;;;;1.52;0.43;;;;;;;8.89;62.01;97136.41;6295495;28;20036;-70
2022/10/15 04:56:55;;;;;;;0.25;0.25;;;;;;;8.70;62.42;97118.19;6295575;28;20498;-70
2022/10/15 04:59:57;;;;;;;1.08;0.52;;;;;;;8.76;62.39;97127.50;6295150;28;20525;-70
2022/10/15 05:03:01;;;;;;;0.20;0.20;;;;;;;9.09;60.60;97129.25;6295045;28;20098;-70
2022/10/15 05:06:11;;;;;;;0.30;0.30;;;;;;;9.07;60.92;97136.34;6295466;28;20036;-69
2022/10/15 05:09:13;;;;;;;0.35;0.30;;;;;;;8.97;60.35;97131.59;6295297;28;20520;-69
2022/10/15 05:12:17;;;;;;;0.40;0.30;;;;;;;8.89;60.94;97122.41;6295438;28;20041;-69
2022/10/15 05:15:21;;;;;;;0.32;0.30;;;;;;;9.00;60.94;97122.69;6295750;28;20421;-69
2022/10/15 05:18:23;;;;;;;0.43;0.40;;;;;;;9.53;59.40;97133.78;6296059;28;20051;-70
2022/10/15 05:21:25;;;;;;;1.40;0.43;;;;;;;9.95;57.95;97129.63;6295125;28;20044;-69
2022/10/15 05:24:26;;;;;;;0.40;0.30;;;;;;;10.38;57.40;97129.75;6295361;28;20051;-68
2022/10/15 05:27:30;;;;;;;0.57;0.35;;;;;;;10.74;55.71;97137.22;6295091;28;20040;-69
2022/10/15 05:30:33;;;;;;;3.80;1.63;;;;;;;11.00;54.87;97144.31;6294939;28;20045;-69
2022/10/15 05:33:35;;;;;;;3.37;1.70;;;;;;;11.28;54.12;97144.41;6295089;28;20059;-69
2022/10/15 05:36:37;;;;;;;3.53;1.17;;;;;;;11.26;53.65;97147.13;6295081;28;20048;-69
2022/10/15 05:39:38;;;;;;;1.02;1.00;;;;;;;11.06;53.92;97139.63;6295011;28;20041;-68
2022/10/15 05:42:49;;;;;;;4.82;1.52;;;;;;;11.00;53.48;97146.13;6294901;28;20053;-70
2022/10/15 05:45:55;;;;;;;2.70;0.75;;;;;;;11.48;52.21;97157.16;6298093;28;20579;-68
2022/10/15 05:48:57;;;;;;;1.20;0.82;;;;;;;11.74;51.61;97154.63;6299728;28;20158;-70
2022/10/15 05:52:01;;;;;;;1.50;0.95;;;;;;;12.00;50.78;97159.09;6299748;28;20044;-69
2022/10/15 05:55:02;;;;;;;2.92;1.15;;;;;;;11.79;50.00;97165.72;6299886;28;20040;-70
2022/10/15 05:58:05;;;;;;;2.88;1.23;;;;;;;12.18;49.69;97161.44;6299444;28;20055;-69
2022/10/15 06:01:09;;;;;;;2.92;1.85;;;;;;;12.84;47.71;97167.50;6299467;28;20619;-69
2022/10/15 06:04:12;;;;;;;2.47;1.73;;;;;;;13.56;45.94;97165.06;6299498;28;20421;-70
2022/10/15 06:07:14;;;;;;;2.00;1.50;;;;;;;13.68;44.69;97159.75;6299282;28;20052;-70
2022/10/15 06:10:16;;;;;;;3.58;2.20;;;;;;;13.57;44.62;97161.50;6299322;28;20040;-70
2022/10/15 06:13:18;;;;;;;2.05;1.77;;;;;;;14.11;43.74;97161.03;6299192;28;20048;-69
2022/10/15 06:16:19;;;;;;;4.40;1.33;;;;;;;14.08;43.60;97161.28;6297795;28;20106;-70
2022/10/15 06:19:20;;;;;;;2.53;1.40;;;;;;;13.93;43.73;97161.44;6299049;28;20386;-69
2022/10/15 06:22:22;;;;;;;2.17;1.60;;;;;;;14.49;43.20;97173.19;6298960;28;20040;-70
2022/10/15 06:25:25;;;;;;;2.78;1.98;;;;;;;14.97;42.25;97173.06;6298560;28;20051;-70
2022/10/15 06:28:27;;;;;;;2.65;1.67;;;;;;;15.04;41.69;97179.59;6297671;28;20144;-68
2022/10/15 06:31:28;;;;;;;2.33;1.40;;;;;;;15.31;40.98;97181.00;6301093;28;20106;-69
2022/10/15 06:34:29;;;;;;;2.80;1.77;;;;;;;15.16;41.25;97183.91;6298978;28;20131;-70
2022/10/15 06:37:33;;;;;;;2.35;1.67;;;;;;;14.36;42.60;97179.41;6299296;28;20045;-69
2022/10/15 06:40:38;;;;;;;2.60;1.50;;;;;;;14.02;43.22;97181.09;6298457;28;20036;-70
2022/10/15 06:43:39;;;;;;;3.30;2.42;;;;;;;13.78;44.12;97181.06;6298615;28;20070;-70
2022/10/15 06:46:40;;;;;;;1.77;1.63;;;;;;;13.45;44.18;97185.22;6298145;28;20041;-69
2022/10/15 06:49:42;;;;;;;4.50;3.38;;;;;;;12.95;44.97;97184.28;6298136;28;20049;-69
2022/10/15 06:52:43;;;;;;;2.28;2.08;;;;;;;12.86;45.42;97184.94;6297976;28;20403;-69
2022/10/15 06:55:50;;;;;;;11.82;5.90;;;;;;;12.95;44.70;97194.03;6297025;28;20036;-70
2022/10/15 06:58:52;;;;;;;7.50;4.90;;;;;;;13.06;43.85;97201.22;6297674;28;20059;-70
2022/10/15 07:01:53;;;;;;;3.83;2.72;;;;;;;12.85;43.93;97199.09;6298540;28;20414;-69
2022/10/15 07:04:57;;;;;;;3.42;1.90;;;;;;;12.27;45.22;97198.59;6298399;28;20040;-70
2022/10/15 07:07:59;;;;;;;3.13;2.83;;;;;;;11.81;46.36;97198.09;6297602;28;20052;-70
2022/10/15 07:11:04;;;;;;;2.47;2.28;;;;;;;11.55;46.76;97205.91;6296922;28;20126;-69
2022/10/15 07:14:05;;;;;;;3.05;2.67;;;;;;;11.22;47.31;97193.88;6297668;28;20056;-70
2022/10/15 07:17:09;;;;;;;3.33;2.63;;;;;;;11.03;48.14;97209.13;6297183;28;20048;-70
2022/10/15 07:20:13;;;;;;;2.95;2.60;;;;;;;10.96;48.38;97202.56;6297095;28;20051;-70
2022/10/15 07:23:15;;;;;;;3.58;2.88;;;;;;;10.80;48.86;97205.25;6297724;28;20045;-69
2022/10/15 07:26:19;;;;;;;5.80;3.00;;;;;;;10.77;48.85;97203.66;6297629;28;20044;-69
2022/10/15 07:29:23;;;;;;;2.10;1.90;;;;;;;10.57;49.37;97209.28;6297541;28;20044;-69
2022/10/15 07:32:26;;;;;;;2.40;2.20;;;;;;;10.44;49.56;97205.66;6297520;28;20123;-69
2022/10/15 07:35:30;;;;;;;3.10;2.30;;;;;;;10.23;50.18;97208.59;6297576;28;20045;-69
2022/10/15 07:38:34;;;;;;;2.25;1.88;;;;;;;10.07;50.67;97216.50;6297106;28;20080;-69
2022/10/15 07:41:36;;;;;;;4.13;2.30;;;;;;;10.11;50.69;97219.84;6297067;28;20048;-69
2022/10/15 07:44:41;;;;;;;2.75;2.35;;;;;;;10.07;50.77;97213.03;6297559;28;20059;-69
2022/10/15 07:47:42;;;;;;;6.30;3.70;;;;;;;10.21;50.58;97223.59;6297117;28;20150;-70
2022/10/15 07:50:43;;;;;;;3.40;3.10;;;;;;;10.24;50.10;97214.69;6297136;28;20036;-69
2022/10/15 07:53:47;;;;;;;;;;;;;;;10.26;49.88;97210.19;6297489;28;20048;-69
2022/10/15 07:56:51;;;;;;;4.37;3.13;;;;;;;10.02;49.99;97207.19;6296884;28;19924;-69
2022/10/15 07:59:52;;;;;;;3.70;3.33;;;;;;;10.12;50.38;97216.25;6296108;28;20541;-69
2022/10/15 08:02:54;;;;;;;3.40;3.10;;;;;;;10.23;50.43;97203.34;6296195;28;20072;-69
2022/10/15 08:05:56;;;;;;;3.53;3.20;;;;;;;10.38;49.97;97201.63;6296210;28;20048;-70
2022/10/15 08:08:59;;;;;;;3.53;2.53;;;;;;;10.54;49.72;97206.84;6296305;28;20044;-70
2022/10/15 08:12:05;;;;;;;3.47;3.00;;;;;;;10.76;49.16;97207.25;6296225;28;20048;-69
2022/10/15 08:15:07;;;;;;;3.90;3.08;;;;;;;10.92;48.57;97201.03;6295905;28;20075;-70
2022/10/15 08:18:11;;;;;;;2.97;2.53;;;;;;;11.05;48.01;97202.00;6295100;28;20084;-69
2022/10/15 08:21:18;;;;;;;2.90;2.50;;;;;;;11.13;47.83;97209.44;6295886;28;20071;-69
2022/10/15 08:24:21;;;;;;;2.08;1.88;;;;;;;11.30;47.45;97205.75;6296353;28;20040;-69
2022/10/15 08:27:23;;;;;;;2.97;2.20;;;;;;;11.46;47.03;97217.00;6296051;28;20045;-70
2022/10/15 08:30:27;;;;;;;3.00;2.30;;;;;;;11.54;46.65;97212.09;6295998;28;20048;-70
2022/10/15 08:33:31;;;;;;;2.92;2.60;;;;;;;11.83;45.70;97214.66;6295836;28;20109;-70
2022/10/15 08:36:35;;;;;;;2.83;2.63;;;;;;;11.91;45.40;97217.66;6296043;28;20506;-69
2022/10/15 08:39:36;;;;;;;2.72;2.22;;;;;;;11.97;45.31;97212.00;6295903;28;20402;-69
2022/10/15 08:42:44;;;;;;;2.60;2.40;;;;;;;12.19;44.92;97222.00;6295356;28;20129;-71
2022/10/15 08:45:47;;;;;;;2.92;2.28;;;;;;;12.33;44.30;97218.44;6295310;28;20422;-70
2022/10/15 08:49:00;;;;;;;2.42;2.22;;;;;;;12.62;43.54;97218.28;6294437;28;20555;-69
2022/10/15 08:52:53;;;;;;;2.70;2.17;;;;;;;13.45;42.11;97222.22;6295951;28;20418;-70
2022/10/15 08:56:03;;;;;;;2.22;2.03;;;;;;;13.94;40.27;97225.78;6294097;28;20064;-70
2022/10/15 08:59:33;;;;;;;2.92;2.65;;;;;;;14.09;39.39;97223.81;6295543;28;20058;-70
2022/10/15 09:02:51;;;;;;;3.35;3.05;;;;;;;14.06;39.73;97224.03;6287688;28;20498;-70
2022/10/15 09:06:19;;;;;;;4.97;3.60;;;;;;;14.00;39.57;97214.75;6295217;28;20426;-70
2022/10/15 09:09:42;;;;;;;3.42;3.10;;;;;;;14.28;39.42;97225.94;6295290;28;20044;-70
2022/10/15 09:12:56;;;;;;;4.50;2.72;;;;;;;14.18;38.95;97223.13;6295140;28;20032;-69
2022/10/15 09:16:21;;;;;;;3.45;2.83;;;;;;;14.46;38.75;97223.72;6295438;28;20546;-71
2022/10/15 09:19:28;;;;;;;3.05;2.53;;;;;;;14.79;37.42;97229.16;6294420;28;20059;-71
2022/10/15 09:22:35;;;;;;;5.03;3.00;;;;;;;15.18;36.83;97219.09;6295248;28;20525;-70
2022/10/15 09:25:42;;;;;;;3.17;2.20;;;;;;;15.40;36.16;97228.00;6294900;28;20056;-70
2022/10/15 09:28:47;;;;;;;2.55;2.22;;;;;;;14.90;36.54;97230.16;6295187;28;20048;-70
2022/10/15 09:32:01;;;;;;;2.75;2.55;;;;;;;14.49;37.61;97226.13;6294983;28;20048;-69
2022/10/15 09:35:23;;;;;;;2.63;2.42;;;;;;;14.37;38.08;97223.44;6294709;28;20049;-69
2022/10/15 09:38:44;;;;;;;4.43;2.50;;;;;;;14.18;38.46;97233.72;6294973;28;20036;-70
2022/10/15 09:42:00;;;;;;;3.40;2.20;;;;;;;14.17;38.64;97232.03;6294964;28;20048;-69
2022/10/15 09:45:10;;;;;;;2.55;2.20;;;;;;;13.89;38.93;97231.41;6295117;28;20498;-70
2022/10/15 09:48:17;;;;;;;3.25;2.15;;;;;;;13.91;38.92;97232.13;6295023;28;20540;-70
2022/10/15 09:51:45;;;;;;;1.60;1.50;;;;;;;14.11;38.49;97237.78;6295029;28;20040;-70
2022/10/15 09:55:16;;;;;;;1.67;1.58;;;;;;;14.10;38.46;97251.97;6294844;28;20052;-70
2022/10/15 09:58:33;;;;;;;1.90;1.60;;;;;;;13.73;39.24;97244.06;6295123;28;20052;-70
2022/10/15 10:01:34;;;;;;;5.00;2.40;;;;;;;13.57;39.84;97246.09;6294838;28;20198;-69
2022/10/15 10:04:38;;;;;;;4.78;3.00;;;;;;;13.45;40.04;97250.47;6294867;28;20046;-70
2022/10/15 10:07:44;;;;;;;6.93;4.55;;;;;;;13.04;40.62;97259.41;6294886;28;20049;-69
2022/10/15 10:10:56;;;;;;;3.17;2.50;;;;;;;12.75;41.31;97256.97;6294576;28;20425;-70
2022/10/15 10:14:00;;;;;;;2.03;1.70;;;;;;;12.40;41.95;97251.41;6292990;28;20519;-69
2022/10/15 10:17:14;;;;;;;2.38;2.03;;;;;;;12.23;42.63;97249.00;6294241;28;20075;-71
2022/10/15 10:20:21;;;;;;;4.20;1.92;;;;;;;12.04;42.81;97244.97;6294652;28;20044;-69
2022/10/15 10:23:28;;;;;;;3.00;1.30;;;;;;;11.99;42.46;97254.09;6293215;28;20047;-70
2022/10/15 10:26:34;;;;;;;2.42;1.10;;;;;;;12.09;41.20;97250.78;6294528;28;20043;-70
2022/10/15 10:29:40;;;;;;;1.13;1.02;;;;;;;11.99;41.26;97252.31;6294366;28;20056;-70
2022/10/15 10:32:44;;;;;;;1.48;1.27;;;;;;;11.79;41.61;97255.34;6298754;28;20048;-69
2022/10/15 10:35:49;;;;;;;3.25;1.38;;;;;;;11.82;41.71;97260.44;6298686;28;20041;-70
2022/10/15 10:39:05;;;;;;;1.73;1.27;;;;;;;11.73;42.50;97266.28;6298758;28;20044;-70
2022/10/15 10:42:33;;;;;;;3.60;1.42;;;;;;;11.78;42.96;97266.84;6298592;28;20052;-70
2022/10/15 10:45:34;;;;;;;2.17;1.63;;;;;;;11.66;42.97;97256.16;6295388;28;20071;-68
2022/10/15 10:48:44;;;;;;;1.75;1.65;;;;;;;11.57;42.80;97272.50;6298704;28;20044;-69
2022/10/15 10:51:49;;;;;;;1.98;1.20;;;;;;;11.59;42.49;97275.91;6298127;28;20058;-70
2022/10/15 10:55:16;;;;;;;3.05;1.77;;;;;;;12.17;41.03;97289.00;6298585;28;20036;-70
2022/10/15 10:58:22;;;;;;;4.47;2.60;;;;;;;11.83;41.41;97270.03;6298455;28;20040;-69
2022/10/15 11:01:29;;;;;;;4.97;2.65;;;;;;;11.59;41.88;97278.53;6298105;28;20091;-69
2022/10/15 11:04:33;;;;;;;3.60;2.28;;;;;;;11.46;41.99;97280.22;6298170;28;20082;-69
2022/10/15 11:08:14;;;;;;;3.45;2.65;;;;;;;11.28;42.35;97278.75;6297935;28;20040;-69
2022/10/15 11:11:39;;;;;;;2.20;2.00;;;;;;;10.98;42.74;97280.53;6298035;28;20044;-69
2022/10/15 11:14:53;;;;;;;2.38;1.80;;;;;;;10.85;43.01;97278.72;6297275;28;20083;-69
2022/10/15 11:18:06;;;;;;;2.13;1.92;;;;;;;10.74;43.18;97292.50;6297776;28;20391;-71
2022/10/15 11:21:07;;;;;;;3.23;2.10;;;;;;;10.64;43.23;97286.91;6297870;28;20039;-70
2022/10/15 11:24:19;;;;;;;3.22;2.10;;;;;;;10.50;43.58;97284.22;6297777;28;20047;-69
2022/10/15 11:27:32;;;;;;;3.15;2.25;;;;;;;10.31;44.23;97287.94;6297469;28;20044;-70
2022/10/15 11:30:51;;;;;;;2.20;1.98;;;;;;;10.22;44.31;97285.81;6297404;28;20052;-70
2022/10/15 11:33:54;;;;;;;2.72;2.05;;;;;;;10.04;44.40;97292.94;6297282;28;20579;-70
2022/10/15 11:37:21;;;;;;;2.38;1.95;;;;;;;9.90;44.72;97291.06;6297643;28;20549;-70
2022/10/15 11:40:57;;;;;;;2.80;2.15;;;;;;;9.76;45.06;97288.34;6297600;28;20048;-70
2022/10/15 11:44:36;;;;;;;2.95;1.88;;;;;;;9.65;45.26;97296.84;6293909;28;20052;-70
2022/10/15 11:47:52;;;;;;;2.55;1.30;;;;;;;9.54;45.58;97298.34;6296756;28;20045;-70
2022/10/15 11:51:02;;;;;;;2.53;1.40;;;;;;;9.40;45.67;97297.31;6297305;28;20071;-70
2022/10/15 11:54:27;;;;;;;2.15;1.50;;;;;;;9.26;46.15;97304.25;6296616;28;20059;-70
2022/10/15 11:57:34;;;;;;;2.55;1.80;;;;;;;9.16;46.37;97298.59;6296968;28;20080;-70
2022/10/15 12:00:44;;;;;;;3.20;1.83;;;;;;;9.10;46.46;97309.44;6296741;28;20075;-70
2022/10/15 12:03:56;;;;;;;2.55;1.83;;;;;;;9.03;46.72;97298.41;6296645;28;20516;-69
2022/10/15 12:07:04;;;;;;;1.95;1.40;;;;;;;8.97;46.99;97301.31;6296863;28;20044;-70
2022/10/15 12:10:13;;;;;;;3.22;1.80;;;;;;;8.98;46.88;97300.41;6296402;28;20482;-70
2022/10/15 12:13:53;;;;;;;2.10;1.75;;;;;;;8.93;47.17;97294.56;6296253;28;20048;-69
2022/10/15 12:17:29;;;;;;;3.47;2.47;;;;;;;8.88;47.36;97294.78;6295889;28;20198;-70
2022/10/15 12:20:31;;;;;;;2.95;2.30;;;;;;;8.84;47.45;97303.75;6296279;28;20129;-70
2022/10/15 12:23:35;;;;;;;3.65;2.30;;;;;;;8.83;47.79;97304.69;6296176;28;20052;-70
2022/10/15 12:26:37;;;;;;;3.45;2.25;;;;;;;8.78;47.91;97304.06;6296115;28;20075;-69
2022/10/15 12:29:38;;;;;;;4.13;2.65;;;;;;;8.71;48.41;97300.03;6296278;28;20521;-69
2022/10/15 12:32:45;;;;;;;4.38;2.80;;;;;;;8.62;48.60;97303.13;6296156;28;20048;-68
2022/10/15 12:35:56;;;;;;;7.53;4.50;;;;;;;8.59;48.90;97305.91;6295385;28;20433;-69
2022/10/15 12:39:06;;;;;;;6.45;4.20;;;;;;;8.51;49.40;97308.91;6295832;28;20410;-69
2022/10/15 12:42:38;;;;;;;15.90;7.78;;;;;;;8.53;49.28;97312.31;6295874;28;20052;-69
2022/10/15 12:45:48;;;;;;;14.32;8.20;;;;;;;8.48;49.37;97306.44;6295753;28;20150;-70
2022/10/15 12:48:52;;;;;;;11.05;7.60;;;;;;;8.45;49.70;97309.22;6296431;28;20434;-69
2022/10/15 12:51:58;;;;;;;5.85;4.97;;;;;;;8.41;49.87;97311.16;6296361;28;20481;-69
2022/10/15 12:55:37;;;;;;;6.78;5.05;;;;;;;8.41;50.23;97310.31;6296759;28;20048;-68
2022/10/15 12:58:40;;;;;;;9.85;5.63;;;;;;;8.33;50.34;97314.09;6295741;28;20486;-68
2022/10/15 13:01:41;;;;;;;20.70;11.32;;;;;;;8.30;50.51;97318.66;6294738;28;20199;-70
2022/10/15 13:04:42;;;;;;;27.95;13.57;;;;;;;8.22;50.82;97315.56;6295795;28;20076;-70
2022/10/15 13:07:50;;;;;;;23.77;13.18;;;;;;;8.23;51.00;97314.63;6295308;28;20108;-69
2022/10/15 13:11:00;;;;;;;18.48;9.98;;;;;;;8.17;51.37;97318.38;6295313;28;20041;-69
2022/10/15 13:14:36;;;;;;;18.70;11.15;;;;;;;8.19;51.69;97320.94;6295432;28;20055;-69
2022/10/15 13:17:38;;;;;;;13.40;8.68;;;;;;;8.17;51.75;97328.03;6295259;28;20129;-68
2022/10/15 13:20:44;;;;;;;11.27;7.55;;;;;;;8.02;52.48;97317.34;6295305;28;20048;-69
2022/10/15 13:23:47;;;;;;;;;;;;;;;8.04;52.54;97333.88;6295277;28;20067;-70
2022/10/15 13:26:54;;;;;;;9.43;5.60;;;;;;;7.84;53.13;97334.81;6295311;28;20389;-70
2022/10/15 13:30:03;;;;;;;10.18;6.60;;;;;;;7.76;53.38;97331.69;6294930;28;20422;-70
2022/10/15 13:33:14;;;;;;;10.00;5.78;;;;;;;7.63;53.93;97333.16;6294895;28;20131;-70
2022/10/15 13:36:25;;;;;;;10.82;6.40;;;;;;;7.74;54.06;97330.06;6294795;28;20053;-70
2022/10/15 13:39:37;;;;;;;12.98;7.35;;;;;;;7.68;54.15;97339.03;6294769;28;20402;-69
2022/10/15 13:43:00;;;;;;;9.02;4.88;;;;;;;7.57;54.42;97336.06;6294904;28;20060;-69
2022/10/15 13:46:04;;;;;;;5.75;4.20;;;;;;;7.41;54.92;97325.41;6294839;28;20086;-70
2022/10/15 13:49:13;;;;;;;5.30;3.45;;;;;;;7.35;55.38;97330.94;6294789;28;20048;-69
2022/10/15 13:52:17;;;;;;;5.15;3.85;;;;;;;7.25;55.53;97333.13;6295198;28;20036;-69
2022/10/15 13:55:29;;;;;;;6.45;3.65;;;;;;;7.19;55.91;97338.63;6294773;28;20041;-69
2022/10/15 13:58:37;;;;;;;3.45;2.42;;;;;;;7.32;55.75;97338.94;6294526;28;20529;-69
2022/10/15 14:01:46;;;;;;;3.47;3.00;;;;;;;7.23;55.92;97339.34;6294822;28;20044;-70
2022/10/15 14:04:50;;;;;;;4.68;3.22;;;;;;;7.18;55.95;97343.00;6294110;28;20051;-68
2022/10/15 14:07:54;;;;;;;3.42;2.88;;;;;;;7.19;55.68;97342.09;6299222;28;20078;-69
2022/10/15 14:10:58;;;;;;;4.32;3.17;;;;;;;7.17;55.76;97346.53;6298395;28;20422;-69
2022/10/15 14:14:01;;;;;;;3.58;3.25;;;;;;;7.16;56.02;97350.09;6299255;28;20048;-69
2022/10/15 14:17:20;;;;;;;3.70;2.80;;;;;;;7.07;56.28;97350.47;6298593;28;20066;-70
2022/10/15 14:20:23;;;;;;;3.50;3.10;;;;;;;6.96;56.16;97344.84;6299260;28;20048;-69
2022/10/15 14:23:30;;;;;;;3.17;2.88;;;;;;;6.96;55.94;97356.19;6299034;28;20037;-70
2022/10/15 14:26:34;;;;;;;2.65;2.05;;;;;;;6.94;56.07;97346.69;6299296;28;20510;-69
2022/10/15 14:29:47;;;;;;;2.67;2.22;;;;;;;6.92;55.54;97353.75;6298639;28;20041;-68
2022/10/15 14:32:52;;;;;;;3.03;2.80;;;;;;;6.99;55.31;97357.78;6298397;28;20167;-69
2022/10/15 14:36:46;;;;;;;8.88;4.38;;;;;;;6.92;55.64;97351.13;6298769;28;20528;-69
2022/10/15 14:39:47;;;;;;;5.13;3.20;;;;;;;6.86;55.84;97346.16;6280488;28;20063;-69
2022/10/15 14:42:55;;;;;;;5.60;3.92;;;;;;;6.73;56.30;97351.88;6298361;28;20040;-70
2022/10/15 14:45:59;;;;;;;3.88;2.80;;;;;;;6.74;56.50;97355.38;6298448;28;20040;-69
2022/10/15 14:49:13;;;;;;;3.90;2.78;;;;;;;6.76;56.32;97345.69;6298677;28;20063;-69
2022/10/15 14:52:19;;;;;;;3.08;2.42;;;;;;;6.67;56.56;97346.91;6299575;28;20434;-69